Charlevoix, MI

2:19 AM EDT on August 01, 2015 (GMT -0400)
1.5 W Ironton | | Change Station
CLOSE
Current Station
Personal Weather Station
Location: Charlevoix, MI
Elevation: 750 ft
Nearby Weather Stations

Elev 750 ft 45.26 °N, 85.22 °W | Updated 11 seconds ago

Clear
Clear
59.1 °F
Feels Like 59.1 °F
N
0.0
Wind Variable Wind from West
Gusts 2.0 mph

Today
High -- | Low -- °F
--% Chance of Precip.
Yesterday
High -- | Low -- °F
Precip. -- in
6:25 AM 9:08 PM
Full, 99% visible
Pressure 29.89 in
Visibility 10.0 miles
Clouds Clear
Dew Point 56 °F
Humidity 89%
Rainfall 0.00 in
Snow Depth Not available.
UV 0 out of 12
Pollen 7.30 out of 12
Air Quality Not available.
Flu Activity Not available.
METAR KCVX 010614Z AUTO 21003KT 10SM CLR 15/14 A2989 RMK AO2 T01500144

More Conditions Fewer Conditions

Pressure 29.89 in
Visibility 10.0 miles
Clouds Clear
Dew Point 56 °F
Humidity 89%
Rainfall 0.00 in
Snow Depth Not available.
UV 0 out of 12
Pollen 7.30 out of 12
Air Quality Not available.
Flu Activity Not available.
METAR KCVX 010614Z AUTO 21003KT 10SM CLR 15/14 A2989 RMK AO2 T01500144

More Conditions Fewer Conditions

Nowcast | as of 2:00 am EDT on August 1, 2015

At 3 am...mostly clear. Temperature 63. West winds 7 mph. At 5 am...partly cloudy. Temperature 63. West winds 8 mph. At 7 am...partly cloudy. Temperature 64. Northwest winds 8 mph. At 9 am...partly cloudy. Temperature 66. West winds 8 mph.

×

10-Day Weather Forecast

×

Almanac

Astronomy

Aug. 01, 2015 Rise Set
Actual Time
Civil Twilight
Nautical Twilight
Astronomical Twilight
Moon
Length of Visible Light
Length of Day
Tomorrow will be .
, % of the Moon is Illuminated

Today's Extremes

State Highs State Lows

Community

WunderPhotos

Upload Photos

1,842,892 photos uploaded!

WunderBlogs® & News

Nearby

Air Quality

  Air Quality AQ Index Pollutant
Not available.

Snow Depth

Station Depth Elevation

Earthquake Activity

City Distance Mag. Time & Date
Minimum magnitude displayed is 2.5.

Coastal Water Temperatures

Place Temperature

Stations

Nearby Weather Stations

Station Location Temp. Windchill Dew Point Humidity Wind Precip. Elev Updated Type